Time;durP1;ratioP1;P1;durP2;ratioP2;P2;SDS_P1;SDS_P2;PMS_P1;PMS_P2;Temp;Humidity;BMP_temperature;BMP_pressure;BME280_temperature;BME280_humidity;BME280_pressure;Samples;Min_cycle;Max_cycle;Signal;HPM_P1;HPM_P2
2021/07/14 00:02:12;;;;;;;2.25;2.03;;;16.10;83.50;;;14.67;84.98;95572.28;4992246;28;20035;-71
2021/07/14 00:04:38;;;;;;;3.80;2.10;;;16.10;83.50;;;14.68;84.39;95560.66;4972098;28;20041;-71
2021/07/14 00:07:04;;;;;;;2.15;1.90;;;16.10;83.40;;;14.68;84.71;95558.00;4986256;28;20410;-72
2021/07/14 00:09:30;;;;;;;4.07;2.10;;;16.10;83.60;;;14.68;85.06;95552.72;4972700;28;20124;-71
2021/07/14 00:11:58;;;;;;;8.63;2.33;;;16.10;83.70;;;14.69;84.73;95545.59;4974793;28;20121;-71
2021/07/14 00:22:27;;;;;;;6.88;2.55;;;16.10;83.70;;;14.65;84.57;95523.25;4987825;28;20077;-70
2021/07/14 00:24:53;;;;;;;9.35;2.50;;;16.10;83.80;;;14.64;84.25;95538.34;4972751;28;20034;-70
2021/07/14 00:27:19;;;;;;;6.50;3.00;;;16.10;83.90;;;14.64;84.96;95521.66;4973079;28;20359;-70
2021/07/14 00:29:56;;;;;;;6.53;2.80;;;16.10;84.10;;;14.62;85.00;95503.34;4957434;28;20383;-71
2021/07/14 00:32:26;;;;;;;7.07;2.40;;;16.10;84.20;;;14.63;85.45;95494.38;4972959;28;20035;-71
2021/07/14 00:34:53;;;;;;;7.97;2.88;;;16.10;84.20;;;14.62;84.48;95500.69;4986176;28;20039;-71
2021/07/14 00:37:19;;;;;;;5.63;2.65;;;16.10;84.00;;;14.62;85.42;95492.75;4938032;28;20031;-71
2021/07/14 00:39:45;;;;;;;10.50;2.78;;;16.10;84.10;;;14.62;84.34;95491.94;4973749;28;20434;-71
2021/07/14 00:42:12;;;;;;;6.80;2.47;;;16.10;84.40;;;14.62;84.95;95498.06;4973650;28;20038;-71
2021/07/14 00:44:37;;;;;;;7.85;2.30;;;16.10;84.30;;;14.63;85.16;95499.66;4985668;28;20089;-71
2021/07/14 00:47:04;;;;;;;6.72;2.25;;;16.10;84.40;;;14.63;86.12;95512.91;4972782;28;20062;-71
2021/07/14 00:49:30;;;;;;;6.65;2.63;;;16.10;84.20;;;14.62;84.40;95515.78;4950577;28;20038;-71
2021/07/14 00:51:56;;;;;;;5.30;2.22;;;16.10;84.10;;;14.61;85.94;95522.09;4968778;28;20094;-71
2021/07/14 00:54:22;;;;;;;3.55;2.58;;;16.10;84.20;;;14.61;84.98;95543.28;4971819;28;20033;-71
2021/07/14 00:56:48;;;;;;;4.80;2.45;;;16.10;84.20;;;14.57;84.60;95542.94;4980761;28;20057;-71
2021/07/14 00:59:14;;;;;;;4.25;2.35;;;16.10;84.10;;;14.57;85.50;95553.53;4973301;28;20038;-71
2021/07/14 01:01:40;;;;;;;3.60;2.20;;;16.10;84.20;;;14.57;84.51;95544.78;4988139;28;20502;-71
2021/07/14 02:59:08;;;;;;;5.35;3.35;;;15.70;85.20;;;14.25;86.44;95512.44;4983096;28;20068;-68
2021/07/14 03:01:34;;;;;;;9.90;3.10;;;15.70;85.20;;;14.21;85.43;95516.56;4977315;28;20045;-68
2021/07/14 03:04:00;;;;;;;6.10;2.50;;;15.60;85.40;;;14.22;85.46;95526.13;4950194;28;21605;-67
2021/07/14 03:06:32;;;;;;;8.38;3.55;;;15.70;85.30;;;14.24;86.57;95545.22;4957143;28;20088;-68
2021/07/14 03:09:03;;;;;;;6.10;3.67;;;15.70;85.30;;;14.22;86.49;95528.75;4959803;28;20046;-68
2021/07/14 03:11:37;;;;;;;3.58;2.70;;;15.60;85.10;;;14.24;86.17;95526.69;4991758;28;20074;-68
2021/07/14 03:14:03;;;;;;;7.00;4.00;;;15.70;85.10;;;14.25;85.12;95520.38;4971081;28;20031;-68
2021/07/14 03:16:30;;;;;;;5.68;3.50;;;15.70;85.20;;;14.26;86.86;95517.53;4978400;28;20030;-67
2021/07/14 03:18:56;;;;;;;5.25;3.33;;;15.80;85.30;;;14.27;86.48;95526.28;4973833;28;20037;-68
2021/07/14 03:21:22;;;;;;;6.40;2.83;;;15.80;85.20;;;14.27;85.92;95521.78;4956672;28;20057;-67
2021/07/14 03:23:47;;;;;;;12.00;3.05;;;15.70;84.90;;;14.29;86.30;95518.91;4953289;28;20109;-68
2021/07/14 03:26:14;;;;;;;6.35;3.40;;;15.80;85.00;;;14.29;87.22;95508.34;4970349;28;20034;-68
2021/07/14 03:28:40;;;;;;;3.72;3.05;;;15.80;84.80;;;14.29;85.34;95513.63;4974853;28;20457;-67
2021/07/14 03:31:07;;;;;;;4.20;2.70;;;15.70;84.70;;;14.28;85.92;95518.09;4973515;28;20038;-68
2021/07/14 03:33:33;;;;;;;7.68;2.65;;;15.80;84.60;;;14.28;85.16;95533.97;4980978;28;20058;-67
2021/07/14 03:36:07;;;;;;;4.97;2.20;;;15.80;84.70;;;14.29;85.95;95545.38;4968288;28;20034;-68
2021/07/14 03:38:33;;;;;;;5.53;2.42;;;15.80;84.00;;;14.29;85.59;95542.72;4961703;28;20038;-67
2021/07/14 03:40:59;;;;;;;5.72;2.38;;;15.80;84.30;;;14.30;84.87;95531.09;4975430;28;20046;-68
2021/07/14 03:43:26;;;;;;;4.03;2.28;;;15.80;84.40;;;14.31;86.33;95543.31;4955129;28;20423;-68
2021/07/14 03:45:52;;;;;;;6.65;2.53;;;15.80;84.40;;;14.32;85.61;95544.91;4962379;28;20037;-68
2021/07/14 03:48:18;;;;;;;5.68;2.13;;;15.90;84.30;;;14.31;85.36;95535.38;4979003;28;20030;-69
2021/07/14 03:50:51;;;;;;;3.97;2.10;;;15.80;83.70;;;14.31;85.52;95538.00;4959394;28;20034;-77
2021/07/14 03:53:17;;;;;;;3.60;1.98;;;15.80;83.90;;;14.32;85.70;95550.19;4968868;28;20507;-73
2021/07/14 03:55:44;;;;;;;5.85;2.40;;;15.80;83.90;;;14.33;86.32;95549.16;4962742;28;20592;-73
2021/07/14 03:58:10;;;;;;;4.07;1.98;;;15.90;83.50;;;14.34;85.55;95550.78;4971315;28;20030;-74
2021/07/14 04:00:36;;;;;;;5.38;1.83;;;15.90;83.60;;;14.33;85.87;95551.81;4980528;28;20069;-73
2021/07/14 04:03:02;;;;;;;2.92;1.52;;;15.90;83.70;;;14.34;84.65;95561.38;4982255;28;20405;-72
2021/07/14 04:05:28;;;;;;;5.10;1.90;;;15.80;83.10;;;14.34;84.06;95569.31;4980087;28;20030;-76
2021/07/14 04:07:54;;;;;;;2.13;1.88;;;15.80;82.90;;;14.35;84.83;95565.63;4958826;28;20465;-67
2021/07/14 04:10:19;;;;;;;3.50;1.80;;;15.80;82.70;;;14.34;83.87;95570.09;4967156;28;20030;-68
2021/07/14 04:12:45;;;;;;;3.53;1.50;;;15.80;82.80;;;14.34;84.42;95571.94;4974957;28;20045;-67
2021/07/14 04:15:11;;;;;;;2.20;1.50;;;15.80;82.20;;;14.33;83.23;95568.50;4975610;28;20030;-68
2021/07/14 04:17:37;;;;;;;5.43;1.60;;;15.80;82.60;;;14.32;83.91;95560.78;4958681;28;20045;-68
2021/07/14 04:20:03;;;;;;;5.05;1.75;;;15.80;82.30;;;14.30;84.48;95568.16;4975431;28;20057;-67
2021/07/14 04:22:29;;;;;;;3.80;1.48;;;15.80;82.20;;;14.28;83.06;95563.06;4974136;28;20045;-67
2021/07/14 04:24:54;;;;;;;2.72;1.30;;;15.80;82.00;;;14.27;83.63;95565.94;4974799;28;20107;-69
2021/07/14 04:27:20;;;;;;;6.82;1.55;;;15.70;81.80;;;14.25;83.28;95565.34;4973865;28;20065;-68
2021/07/14 04:29:46;;;;;;;3.45;1.40;;;15.60;81.80;;;14.21;83.24;95557.06;4977738;28;20126;-68
2021/07/14 04:32:12;;;;;;;4.22;1.52;;;15.60;81.70;;;14.22;82.68;95561.31;4956217;28;20070;-68
2021/07/14 04:34:37;;;;;;;3.00;1.27;;;15.70;81.90;;;14.21;82.84;95553.59;4955410;28;20066;-67
2021/07/14 04:37:03;;;;;;;4.13;1.33;;;15.70;81.90;;;14.21;83.82;95549.13;4947054;28;20058;-67
2021/07/14 04:39:29;;;;;;;3.08;1.40;;;15.60;81.90;;;14.20;83.44;95552.00;4984365;28;20035;-67
2021/07/14 04:41:55;;;;;;;3.25;1.10;;;15.60;82.00;;;14.21;82.40;95548.31;4964312;28;20410;-67
2021/07/14 04:44:49;;;;;;;4.38;1.20;;;15.70;81.80;;;14.21;82.88;95548.31;4987451;28;20037;-67
2021/07/14 04:47:15;;;;;;;4.88;1.45;;;15.70;82.00;;;14.23;83.34;95541.75;4971288;28;20042;-68
2021/07/14 04:49:41;;;;;;;4.75;1.67;;;15.70;82.00;;;14.25;83.06;95525.66;4942329;28;20477;-68
2021/07/14 04:52:07;;;;;;;3.70;1.50;;;15.80;81.80;;;14.27;83.50;95526.28;4941571;28;20216;-70
2021/07/14 04:54:33;;;;;;;3.75;1.58;;;15.90;81.80;;;14.31;83.65;95524.78;4955089;28;20387;-69
2021/07/14 04:56:59;;;;;;;3.05;1.35;;;15.80;81.70;;;14.30;82.64;95520.53;4985199;28;20058;-69
2021/07/14 04:59:25;;;;;;;5.03;1.65;;;15.80;81.90;;;14.33;82.93;95525.34;4964165;28;20053;-70
2021/07/14 05:01:50;;;;;;;2.70;1.45;;;15.90;81.70;;;14.32;83.38;95521.09;4968046;28;20045;-69
2021/07/14 05:04:16;;;;;;;4.38;1.67;;;15.80;81.80;;;14.35;83.12;95518.81;4959326;28;20035;-71
2021/07/14 05:06:42;;;;;;;4.50;1.50;;;15.80;81.50;;;14.39;82.88;95522.59;4947702;28;20078;-70
2021/07/14 05:09:08;;;;;;;4.53;1.60;;;16.00;81.30;;;14.42;82.46;95518.69;4959342;28;20446;-71
2021/07/14 05:11:33;;;;;;;3.72;1.48;;;16.00;80.90;;;14.43;82.80;95515.03;4951925;28;20118;-69
2021/07/14 05:13:59;;;;;;;3.30;1.38;;;15.90;80.40;;;14.44;82.30;95511.38;4957956;28;20030;-71
2021/07/14 05:16:25;;;;;;;4.53;1.30;;;16.10;80.40;;;14.45;81.77;95497.09;4941423;28;20038;-73
2021/07/14 05:18:51;;;;;;;9.48;1.67;;;16.00;80.60;;;14.48;81.48;95501.94;4957285;28;20073;-70
2021/07/14 05:21:16;;;;;;;4.07;1.40;;;16.10;80.20;;;14.49;81.63;95493.00;4960388;28;20069;-74
2021/07/14 05:23:42;;;;;;;2.88;1.10;;;16.10;80.00;;;14.54;81.55;95509.00;4973512;28;20090;-75
2021/07/14 05:26:08;;;;;;;3.38;1.15;;;16.10;80.00;;;14.58;81.55;95507.50;4955840;28;20066;-74
2021/07/14 05:28:34;;;;;;;4.55;1.52;;;16.10;79.80;;;14.60;82.24;95516.00;4938638;28;20124;-74
2021/07/14 05:30:59;;;;;;;3.60;1.17;;;16.20;79.70;;;14.63;81.62;95504.16;4951310;28;20034;-77
2021/07/14 05:33:25;;;;;;;2.85;1.30;;;16.20;79.60;;;14.65;80.62;95502.88;4967870;28;20042;-70
2021/07/14 05:35:54;;;;;;;3.95;1.50;;;16.10;79.40;;;14.67;81.88;95508.75;4967262;28;20027;-67
2021/07/14 05:38:20;;;;;;;3.63;1.70;;;16.30;79.70;;;14.72;80.98;95512.59;4968945;28;20560;-69
2021/07/14 05:40:50;;;;;;;4.07;1.58;;;16.40;79.50;;;14.76;81.92;95506.59;4986785;28;20366;-67
2021/07/14 05:43:16;;;;;;;6.10;1.60;;;16.50;78.80;;;14.78;81.80;95501.88;4970844;28;20034;-68
2021/07/14 05:45:42;;;;;;;5.43;1.58;;;16.40;79.20;;;14.84;81.67;95493.00;4968834;28;20043;-70
2021/07/14 05:48:08;;;;;;;5.72;1.92;;;16.60;78.60;;;14.94;81.31;95505.69;4981507;28;20030;-69
2021/07/14 05:50:34;;;;;;;4.80;1.50;;;16.70;78.70;;;15.04;81.67;95499.81;4956365;28;20140;-69
2021/07/14 05:52:59;;;;;;;4.13;1.80;;;16.80;77.90;;;15.12;81.37;95507.38;4985172;28;20038;-67
2021/07/14 05:55:25;;;;;;;4.03;1.40;;;16.90;78.00;;;15.19;80.88;95502.78;4964772;28;20607;-69
2021/07/14 05:57:53;;;;;;;4.90;1.58;;;17.00;77.80;;;15.27;80.66;95508.53;4973463;28;20529;-69
2021/07/14 06:00:19;;;;;;;3.92;1.67;;;17.10;77.00;;;15.34;80.46;95519.00;4955914;28;20375;-69
2021/07/14 06:02:44;;;;;;;5.07;2.33;;;17.20;76.50;;;15.44;79.72;95521.06;4975885;28;20065;-68
2021/07/14 06:05:11;;;;;;;7.32;3.15;;;17.40;76.70;;;15.52;80.26;95523.34;4963242;28;20027;-68
2021/07/14 06:07:38;;;;;;;3.08;1.95;;;17.40;76.40;;;15.59;79.61;95516.09;4965274;28;20046;-68
2021/07/14 06:10:05;;;;;;;3.60;1.80;;;17.40;76.30;;;15.65;79.06;95506.44;4973536;28;20077;-69
2021/07/14 06:12:30;;;;;;;2.63;1.60;;;17.50;76.60;;;15.70;79.66;95504.69;5000854;28;20062;-67
2021/07/14 06:14:56;;;;;;;3.55;1.90;;;17.40;76.20;;;15.75;79.67;95506.63;4994656;28;20068;-66
2021/07/14 06:17:22;;;;;;;2.13;1.40;;;17.50;76.10;;;15.79;79.32;95513.84;4972449;28;20121;-70
2021/07/14 06:19:48;;;;;;;4.43;2.28;;;17.50;75.80;;;15.82;78.63;95517.88;4948931;28;20054;-68
2021/07/14 06:22:13;;;;;;;4.45;2.30;;;17.60;76.50;;;15.87;79.61;95529.41;4940885;28;20041;-66
2021/07/14 06:24:40;;;;;;;5.70;2.03;;;17.60;76.80;;;15.92;79.15;95526.84;4978300;28;20134;-67
2021/07/14 06:27:06;;;;;;;3.80;2.03;;;17.60;76.10;;;15.99;79.02;95536.50;4970894;28;20037;-67
2021/07/14 06:29:32;;;;;;;4.18;1.92;;;17.80;76.20;;;16.00;78.71;95538.13;4988306;28;20118;-67
2021/07/14 06:31:58;;;;;;;3.22;1.95;;;17.60;75.90;;;16.01;78.45;95542.38;4984848;28;20573;-71
2021/07/14 06:34:24;;;;;;;3.25;1.80;;;17.60;76.50;;;16.03;78.27;95540.31;4952452;28;20462;-67
2021/07/14 06:36:50;;;;;;;5.00;1.88;;;17.60;75.50;;;16.04;78.35;95542.72;4971850;28;20034;-66
2021/07/14 06:39:16;;;;;;;3.75;1.70;;;17.80;76.00;;;16.07;78.48;95547.56;4960375;28;20027;-67
2021/07/14 06:41:41;;;;;;;3.58;1.50;;;17.80;76.00;;;16.01;77.34;95551.16;4962842;28;20034;-67
2021/07/14 06:44:07;;;;;;;6.20;2.33;;;17.40;75.50;;;15.93;77.42;95555.00;4947513;28;20130;-68
2021/07/14 06:46:33;;;;;;;4.15;2.20;;;17.20;76.00;;;15.89;78.10;95556.50;4938218;28;20510;-69
2021/07/14 06:48:59;;;;;;;7.70;2.55;;;17.30;76.90;;;15.90;78.24;95552.81;4972340;28;20057;-68
2021/07/14 06:51:25;;;;;;;3.60;2.00;;;17.50;76.60;;;15.90;78.25;95552.81;4942890;28;20061;-67
2021/07/14 06:53:51;;;;;;;2.40;1.55;;;17.30;76.40;;;15.88;78.38;95554.91;4968473;28;20347;-68
2021/07/14 06:56:17;;;;;;;5.35;1.90;;;17.40;76.10;;;15.89;77.17;95564.47;4952708;28;20035;-68
2021/07/14 06:58:43;;;;;;;8.57;2.58;;;17.40;75.80;;;15.93;77.57;95564.78;4986108;28;20668;-68
2021/07/14 07:01:09;;;;;;;4.43;1.95;;;17.60;75.80;;;15.95;76.91;95561.91;4962037;28;20035;-67
2021/07/14 07:03:35;;;;;;;3.92;1.80;;;17.50;74.90;;;15.99;77.31;95568.34;4952724;28;20037;-69
2021/07/14 07:06:02;;;;;;;4.65;1.75;;;17.70;75.50;;;16.08;77.53;95564.28;4949570;28;20031;-67
2021/07/14 07:08:28;;;;;;;5.57;1.90;;;17.90;75.60;;;16.12;76.93;95560.13;4970998;28;20113;-66
2021/07/14 07:10:54;;;;;;;3.70;2.13;;;17.80;75.00;;;16.16;77.50;95555.94;4970844;28;20132;-68
2021/07/14 07:13:19;;;;;;;9.32;2.28;;;18.10;74.30;;;16.21;77.25;95564.00;4968241;28;20062;-66
2021/07/14 07:15:46;;;;;;;6.47;2.55;;;17.90;73.60;;;16.23;77.06;95559.25;4968245;28;20035;-67
2021/07/14 07:18:12;;;;;;;4.30;1.98;;;18.00;74.60;;;16.31;77.13;95558.91;4967627;28;20179;-66
2021/07/14 07:20:38;;;;;;;6.95;2.10;;;18.20;74.50;;;16.38;77.09;95553.44;4948915;28;20046;-70
2021/07/14 07:23:04;;;;;;;9.20;6.20;;;18.20;74.10;;;16.43;76.60;95556.16;4970490;28;20031;-66
2021/07/14 07:25:29;;;;;;;7.30;2.78;;;18.20;73.10;;;16.46;76.51;95572.41;4993603;28;20053;-68
2021/07/14 07:27:58;;;;;;;8.85;2.10;;;18.20;73.60;;;16.51;76.85;95575.16;4963012;28;20049;-66
2021/07/14 07:30:24;;;;;;;4.55;2.33;;;18.40;73.80;;;16.59;76.39;95575.84;4958308;28;20138;-67
2021/07/14 07:32:50;;;;;;;6.15;1.98;;;18.40;73.10;;;16.61;76.07;95581.72;4951644;28;20125;-67
2021/07/14 07:35:16;;;;;;;4.22;2.42;;;18.30;73.40;;;16.71;75.00;95579.25;4960377;28;20124;-66
2021/07/14 07:37:42;;;;;;;9.35;4.43;;;18.40;72.10;;;16.73;75.25;95577.97;4968874;28;20125;-67
2021/07/14 07:40:08;;;;;;;4.53;2.20;;;18.60;73.20;;;16.82;76.12;95573.88;4956616;28;20113;-67
2021/07/14 07:42:34;;;;;;;5.80;2.65;;;18.60;72.70;;;16.83;75.38;95582.66;4971192;28;20038;-66
2021/07/14 07:45:00;;;;;;;3.47;1.85;;;18.60;71.90;;;16.79;75.15;95581.53;4961903;28;20117;-67
2021/07/14 07:47:25;;;;;;;6.05;2.13;;;18.30;72.30;;;16.76;75.15;95587.31;4968326;28;20114;-66
2021/07/14 07:49:51;;;;;;;4.68;1.95;;;18.30;73.10;;;16.75;75.03;95581.22;4967131;28;20057;-68
2021/07/14 07:52:22;;;;;;;6.00;2.80;;;18.20;73.60;;;16.77;75.41;95589.75;4936712;28;20059;-68
2021/07/14 07:54:47;;;;;;;3.65;1.98;;;18.40;73.60;;;16.82;75.54;95594.31;4978899;28;20386;-67
2021/07/14 07:57:13;;;;;;;3.35;1.92;;;18.60;73.40;;;16.88;75.68;95596.00;4948832;28;20035;-68
2021/07/14 07:59:39;;;;;;;4.03;2.25;;;18.70;72.50;;;16.94;75.08;95588.94;4970483;28;20093;-67
2021/07/14 08:02:05;;;;;;;4.90;2.03;;;18.70;72.90;;;16.99;75.11;95587.19;4987343;28;20384;-67
2021/07/14 08:04:31;;;;;;;5.03;3.08;;;18.80;72.60;;;17.07;74.83;95589.44;4952408;28;20378;-67
2021/07/14 08:06:57;;;;;;;2.42;1.90;;;18.90;72.10;;;17.14;75.02;95584.75;4952056;28;20605;-67
2021/07/14 08:09:23;;;;;;;2.80;1.90;;;18.90;72.10;;;17.21;74.76;95586.47;4954041;28;20027;-67
2021/07/14 08:11:48;;;;;;;3.03;1.80;;;18.90;71.80;;;17.28;74.50;95595.06;4986831;28;20510;-67
2021/07/14 08:14:16;;;;;;;3.83;1.92;;;19.00;72.10;;;17.26;74.37;95597.16;4970128;28;20534;-70
2021/07/14 08:16:44;;;;;;;5.85;2.15;;;18.70;70.90;;;17.17;73.68;95598.59;4973327;28;20133;-67
2021/07/14 08:19:10;;;;;;;5.13;2.15;;;18.60;72.10;;;17.19;74.41;95602.63;4974682;28;20058;-68
2021/07/14 08:21:36;;;;;;;3.22;2.08;;;18.80;71.80;;;17.21;73.72;95594.44;4957371;28;20133;-66
2021/07/14 08:24:02;;;;;;;3.47;2.00;;;18.70;71.60;;;17.22;74.19;95604.00;4994786;28;20035;-69
2021/07/14 08:26:28;;;;;;;4.45;2.35;;;18.80;71.20;;;17.26;73.85;95597.16;4970586;28;20031;-66
2021/07/14 08:28:54;;;;;;;6.47;2.30;;;18.90;71.80;;;17.34;74.12;95596.72;4957546;28;20056;-67
2021/07/14 08:31:20;;;;;;;4.05;1.90;;;19.10;71.00;;;17.43;73.55;95587.31;4950973;28;20053;-66
2021/07/14 08:33:46;;;;;;;4.03;1.83;;;19.30;70.00;;;17.54;73.67;95594.38;4945751;28;20093;-71
2021/07/14 08:36:12;;;;;;;3.63;1.75;;;19.50;69.90;;;17.69;73.54;95591.97;4969866;28;20125;-67
2021/07/14 08:38:38;;;;;;;3.58;1.98;;;19.80;69.90;;;17.85;73.30;95584.16;4963968;28;20046;-67
2021/07/14 08:41:07;;;;;;;4.43;2.03;;;20.00;68.70;;;17.96;72.58;95585.91;4971382;28;20027;-68
2021/07/14 08:43:33;;;;;;;4.97;1.70;;;19.90;67.80;;;18.05;72.33;95600.38;4958649;28;20051;-69
2021/07/14 08:45:59;;;;;;;3.33;1.73;;;20.00;67.90;;;18.14;72.93;95593.59;4974341;28;20541;-70
2021/07/14 08:48:25;;;;;;;2.58;1.83;;;20.10;68.20;;;18.25;72.22;95600.63;4973704;28;20040;-68
2021/07/14 08:50:52;;;;;;;2.42;1.80;;;20.20;67.60;;;18.40;71.88;95607.19;4969081;28;20062;-67
2021/07/14 08:53:19;;;;;;;1.70;1.50;;;20.40;67.40;;;18.49;71.67;95611.00;4986165;28;20041;-72
2021/07/14 08:55:46;;;;;;;2.70;1.95;;;20.60;66.00;;;18.60;71.08;95608.22;4954560;28;20030;-68
2021/07/14 08:58:15;;;;;;;3.08;2.33;;;20.60;65.80;;;18.68;70.60;95601.66;4964211;28;20023;-67
2021/07/14 09:00:41;;;;;;;6.68;2.38;;;20.70;65.60;;;18.79;71.13;95608.69;4972218;28;20034;-71
2021/07/14 09:03:07;;;;;;;2.88;1.77;;;20.80;64.20;;;18.88;69.92;95615.16;4948096;28;20077;-69
2021/07/14 09:05:33;;;;;;;5.13;1.98;;;21.00;64.90;;;18.96;69.81;95616.56;4962999;28;20041;-69
2021/07/14 09:07:59;;;;;;;2.45;1.58;;;21.00;65.20;;;19.00;69.91;95614.97;4947702;28;20042;-73
2021/07/14 09:10:25;;;;;;;2.50;1.60;;;20.80;64.80;;;19.04;69.89;95617.97;4958904;28;20031;-69
2021/07/14 09:12:54;;;;;;;3.88;1.83;;;20.80;65.40;;;19.06;69.92;95610.53;4957856;28;20061;-71
2021/07/14 09:15:21;;;;;;;4.07;1.70;;;21.00;64.80;;;19.15;68.81;95609.00;4954640;28;20045;-65
2021/07/14 09:17:49;;;;;;;5.78;1.60;;;21.10;63.40;;;19.27;68.69;95618.44;4963165;28;20042;-68
2021/07/14 09:20:21;;;;;;;3.08;1.65;;;21.50;63.40;;;19.42;67.49;95617.72;4955858;28;20031;-67
2021/07/14 09:22:48;;;;;;;6.18;2.65;;;21.60;62.40;;;19.45;67.50;95609.22;4987046;28;20038;-73
2021/07/14 09:25:16;;;;;;;8.80;5.22;;;21.40;61.10;;;19.58;67.33;95608.81;4942684;28;20084;-67
2021/07/14 09:27:56;;;;;;;2.40;1.70;;;22.10;60.40;;;19.82;65.30;95619.88;4942451;28;20511;-72
2021/07/14 09:30:24;;;;;;;8.27;1.75;;;22.60;58.80;;;20.16;66.79;95620.34;4971601;28;20578;-67
2021/07/14 09:33:07;;;;;;;2.15;1.35;;;23.00;58.90;;;20.54;64.01;95623.69;4973598;28;20115;-68
2021/07/14 09:35:37;;;;;;;3.50;1.50;;;23.40;56.70;;;20.89;64.63;95624.84;4969774;28;20126;-70
2021/07/14 09:38:10;;;;;;;2.30;1.40;;;23.90;55.30;;;21.15;62.74;95626.47;4978467;28;20142;-71
2021/07/14 09:40:36;;;;;;;2.40;1.38;;;23.90;53.70;;;21.34;63.97;95630.25;4954931;28;20046;-71
2021/07/14 09:43:06;;;;;;;2.47;1.30;;;24.10;52.50;;;21.43;60.45;95624.34;4954341;28;20503;-71
2021/07/14 09:46:14;;;;;;;4.13;1.42;;;23.70;52.20;;;21.50;59.92;95619.53;4969709;28;20502;-72
2021/07/14 09:48:45;;;;;;;3.28;1.23;;;23.70;54.00;;;21.51;62.03;95623.81;4938966;28;20158;-74
2021/07/14 09:51:22;;;;;;;1.92;1.40;;;23.60;53.70;;;21.49;60.05;95633.97;4980605;28;20031;-71
2021/07/14 09:53:49;;;;;;;3.45;1.30;;;23.40;54.50;;;21.47;61.97;95628.88;4954437;28;20058;-71
2021/07/14 09:56:22;;;;;;;4.13;1.40;;;23.20;54.80;;;21.41;61.19;95627.28;4968488;28;20033;-73
2021/07/14 09:59:04;;;;;;;1.50;1.02;;;23.10;54.80;;;21.32;60.29;95619.00;4983409;28;20562;-70
2021/07/14 10:01:49;;;;;;;2.20;1.48;;;23.00;56.40;;;21.26;58.88;95628.09;4969963;28;20049;-74
2021/07/14 10:04:25;;;;;;;3.15;2.17;;;23.00;54.90;;;21.21;59.86;95619.25;4969743;28;20035;-72
2021/07/14 10:07:03;;;;;;;4.32;1.40;;;22.90;56.20;;;21.19;59.75;95622.19;4952777;28;20494;-72
2021/07/14 10:09:28;;;;;;;1.85;1.27;;;22.90;55.90;;;21.17;61.46;95621.66;4979996;28;20054;-73
2021/07/14 10:11:54;;;;;;;3.22;1.20;;;23.00;55.30;;;21.16;61.32;95622.72;4969862;28;20065;-71
2021/07/14 10:14:28;;;;;;;1.77;1.00;;;23.00;56.20;;;21.14;59.63;95619.50;4960793;28;20490;-70
2021/07/14 10:16:53;;;;;;;3.13;1.40;;;23.00;55.30;;;21.12;60.93;95624.31;4972977;28;20062;-71
2021/07/14 10:19:19;;;;;;;2.72;1.20;;;23.00;55.60;;;21.07;61.37;95629.69;4963506;28;20074;-71
2021/07/14 10:21:47;;;;;;;1.65;1.35;;;22.90;55.90;;;20.96;60.48;95622.69;4969118;28;20081;-72
2021/07/14 10:24:17;;;;;;;1.98;1.00;;;22.60;56.50;;;20.91;61.16;95620.81;4942604;28;20043;-75
2021/07/14 10:26:45;;;;;;;3.00;1.40;;;22.60;58.00;;;20.86;61.75;95618.16;4963697;28;20046;-69
2021/07/14 10:29:11;;;;;;;2.90;1.40;;;22.60;57.10;;;20.80;61.99;95622.66;4969464;28;20266;-69
2021/07/14 10:31:39;;;;;;;2.25;1.10;;;22.60;58.30;;;20.69;61.88;95612.25;4962422;28;20035;-69
2021/07/14 10:34:06;;;;;;;2.67;1.20;;;22.30;57.50;;;20.53;61.50;95608.72;4960813;28;20047;-77
2021/07/14 10:36:35;;;;;;;1.60;1.10;;;22.00;59.30;;;20.41;62.36;95600.16;4981426;28;20045;-71
2021/07/14 10:39:09;;;;;;;2.42;1.42;;;22.00;59.20;;;20.28;61.83;95605.94;4995076;28;20050;-72
2021/07/14 10:41:35;;;;;;;3.42;1.20;;;21.60;60.30;;;20.10;62.26;95624.03;4981905;28;20453;-72
2021/07/14 10:44:01;;;;;;;1.67;1.20;;;21.50;60.70;;;19.98;63.02;95628.78;4972397;28;20058;-73
2021/07/14 10:46:29;;;;;;;5.57;1.10;;;21.20;61.20;;;19.82;63.52;95624.41;4969748;28;20070;-73
2021/07/14 10:48:57;;;;;;;1.75;1.48;;;21.10;61.50;;;19.73;63.28;95623.31;4970682;28;20561;-76
2021/07/14 10:51:23;;;;;;;1.80;1.38;;;21.20;61.60;;;19.70;63.83;95621.16;4943610;28;20042;-75
2021/07/14 10:53:58;;;;;;;2.25;1.30;;;21.40;61.70;;;19.72;63.29;95619.84;4968854;28;20118;-74
2021/07/14 10:56:28;;;;;;;1.90;1.10;;;21.40;61.20;;;19.78;63.44;95634.00;4938769;28;20469;-75
2021/07/14 10:58:54;;;;;;;2.45;1.17;;;21.60;61.20;;;19.83;64.56;95629.50;4969370;28;20057;-74
2021/07/14 11:01:43;;;;;;;2.53;1.20;;;21.70;61.50;;;19.91;64.58;95630.06;4990976;28;20426;-73
2021/07/14 11:04:32;;;;;;;4.65;1.90;;;21.80;61.60;;;19.99;64.03;95627.72;4969138;28;20053;-68
2021/07/14 11:07:02;;;;;;;3.78;1.38;;;22.10;60.60;;;20.12;64.59;95619.22;4982342;28;20045;-67
2021/07/14 11:09:37;;;;;;;3.03;1.60;;;22.50;59.50;;;20.34;62.65;95627.06;4969580;28;20518;-68
2021/07/14 11:12:04;;;;;;;3.35;1.65;;;22.70;58.30;;;20.52;63.55;95623.16;4998594;28;20065;-67
2021/07/14 11:14:47;;;;;;;2.03;1.20;;;22.90;57.10;;;20.82;63.29;95624.28;4970116;28;20052;-69
2021/07/14 11:17:13;;;;;;;2.17;1.50;;;23.40;57.80;;;21.06;63.35;95625.41;5002864;28;20034;-67
2021/07/14 11:19:49;;;;;;;2.97;1.67;;;23.60;56.80;;;21.29;61.85;95632.94;4950361;28;20125;-68
2021/07/14 11:22:16;;;;;;;2.28;1.13;;;23.80;56.40;;;21.44;62.01;95629.44;4973277;28;20459;-68
2021/07/14 11:24:46;;;;;;;1.38;1.10;;;23.80;54.40;;;21.68;61.13;95618.97;4986592;28;20518;-68
2021/07/14 11:27:27;;;;;;;2.53;1.00;;;24.30;55.00;;;22.00;60.35;95622.13;4986992;28;20121;-67
2021/07/14 11:30:16;;;;;;;3.40;1.20;;;24.90;53.40;;;22.44;56.30;95613.41;4988571;28;20027;-68
2021/07/14 11:32:42;;;;;;;2.47;1.00;;;25.30;48.10;;;22.76;59.21;95617.50;4983038;28;20363;-68
2021/07/14 11:35:30;;;;;;;1.40;0.70;;;25.80;49.20;;;22.99;56.07;95614.19;4985452;28;20035;-68
2021/07/14 11:37:57;;;;;;;2.15;0.90;;;25.60;47.20;;;23.08;57.75;95623.22;5002062;28;20031;-68
2021/07/14 11:40:25;;;;;;;2.42;1.05;;;25.30;48.10;;;23.19;56.26;95621.28;4970826;28;20033;-67
2021/07/14 11:43:02;;;;;;;2.25;1.00;;;25.60;48.20;;;23.16;52.77;95611.91;4969661;28;20037;-67
2021/07/14 11:45:34;;;;;;;4.93;1.20;;;25.20;47.20;;;23.02;53.86;95621.66;4966266;28;20294;-67
2021/07/14 11:48:21;;;;;;;2.47;1.40;;;24.50;48.70;;;22.77;53.52;95624.47;4989498;28;20069;-67
2021/07/14 11:50:55;;;;;;;1.83;1.02;;;24.00;50.00;;;22.60;53.99;95620.28;4987023;28;20039;-67
2021/07/14 11:53:31;;;;;;;2.20;1.00;;;24.10;50.50;;;22.58;54.50;95610.91;4957312;28;20166;-68
2021/07/14 11:56:13;;;;;;;5.93;1.70;;;24.50;50.80;;;22.61;55.21;95616.50;4978190;28;20533;-68
2021/07/14 11:58:41;;;;;;;2.33;1.23;;;24.70;50.60;;;22.67;54.81;95609.25;4968879;28;20042;-67
2021/07/14 12:01:24;;;;;;;2.28;1.20;;;24.80;49.50;;;22.73;53.67;95607.34;4974946;28;20038;-67
2021/07/14 12:03:59;;;;;;;3.15;1.15;;;24.80;49.10;;;22.80;54.04;95618.56;4976293;28;20145;-68
2021/07/14 12:06:41;;;;;;;2.00;1.10;;;24.90;49.50;;;22.75;53.15;95615.91;4979236;28;20041;-66
2021/07/14 12:09:12;;;;;;;2.15;1.33;;;24.50;48.80;;;22.58;54.18;95622.44;4970743;28;20034;-67
2021/07/14 12:12:07;;;;;;;2.45;1.08;;;23.90;51.60;;;22.27;53.79;95637.84;4985289;28;20034;-68
2021/07/14 12:14:38;;;;;;;2.88;1.20;;;23.40;52.60;;;22.06;55.91;95646.22;4973944;28;20035;-74
2021/07/14 12:17:19;;;;;;;2.75;1.33;;;23.30;54.20;;;21.83;56.41;95642.25;4975812;28;20505;-67
2021/07/14 12:20:05;;;;;;;;;;;23.00;55.30;;;21.64;57.26;95645.47;4950994;28;20168;-69
2021/07/14 12:22:33;;;;;;;1.77;1.23;;;23.00;56.00;;;21.46;57.62;95639.88;4967886;28;19988;-70
2021/07/14 12:25:02;;;;;;;2.28;1.10;;;22.40;56.50;;;21.23;57.46;95650.00;4971333;28;20410;-69
2021/07/14 12:27:35;;;;;;;2.85;1.35;;;22.20;57.00;;;21.05;57.96;95645.19;4958066;28;20081;-68
2021/07/14 12:30:06;;;;;;;3.53;1.42;;;22.20;58.00;;;20.90;58.98;95645.97;4974357;28;20101;-70